Aviation Digital Data Service (ADDS)

Output produced by METARs form (0228 UTC 06 December 2020)
found at http://aviationweather.gov/metar/data/
 
METAR text: KDKB 060215Z AUTO 10005KT 10SM BKN030 00/M03 A3011 RMK AO2 T00001029
Conditions at: KDKB (DE KALB , IL, US) observed 0215 UTC 06 December 2020
Temperature: 0.0°C (32°F)
Dewpoint: -2.9°C (27°F) [RH = 81%]
Pressure (altimeter): 30.11 inches Hg (1019.7 mb)
Winds: from the E (100 degrees) at 6 MPH (5 knots; 2.6 m/s)
Visibility: 10 or more miles (16+ km)
Ceiling: 3000 feet AGL
Clouds: broken clouds at 3000 feet AGL
Weather: automated observation with no human augmentation;
there may or may not be significant weather present at this time